sensor_id;sensor_type;location;lat;lon;timestamp;P1;durP1;ratioP1;P2;durP2;ratioP2
19059;SDS011;9663;48.996;8.334;2022-08-02T00:00:22;1.10;;;0.50;;
19059;SDS011;9663;48.996;8.334;2022-08-02T00:02:48;1.30;;;0.43;;
19059;SDS011;9663;48.996;8.334;2022-08-02T00:05:14;1.42;;;0.40;;
19059;SDS011;9663;48.996;8.334;2022-08-02T00:07:40;1.88;;;0.60;;
19059;SDS011;9663;48.996;8.334;2022-08-02T00:10:06;3.20;;;0.60;;
19059;SDS011;9663;48.996;8.334;2022-08-02T00:12:33;3.20;;;0.60;;
19059;SDS011;9663;48.996;8.334;2022-08-02T00:14:59;1.52;;;0.50;;
19059;SDS011;9663;48.996;8.334;2022-08-02T00:17:26;2.53;;;0.60;;
19059;SDS011;9663;48.996;8.334;2022-08-02T00:19:51;2.25;;;0.63;;
19059;SDS011;9663;48.996;8.334;2022-08-02T00:22:17;1.50;;;0.60;;
19059;SDS011;9663;48.996;8.334;2022-08-02T00:24:43;1.52;;;0.57;;
19059;SDS011;9663;48.996;8.334;2022-08-02T00:27:09;1.33;;;0.57;;
19059;SDS011;9663;48.996;8.334;2022-08-02T00:29:35;2.17;;;0.80;;
19059;SDS011;9663;48.996;8.334;2022-08-02T00:32:01;1.70;;;0.50;;
19059;SDS011;9663;48.996;8.334;2022-08-02T00:34:28;1.35;;;0.45;;
19059;SDS011;9663;48.996;8.334;2022-08-02T00:36:54;1.90;;;0.68;;
19059;SDS011;9663;48.996;8.334;2022-08-02T00:39:19;1.50;;;0.50;;
19059;SDS011;9663;48.996;8.334;2022-08-02T00:41:46;1.23;;;0.47;;
19059;SDS011;9663;48.996;8.334;2022-08-02T00:44:15;2.60;;;0.50;;
19059;SDS011;9663;48.996;8.334;2022-08-02T00:46:42;1.42;;;0.50;;
19059;SDS011;9663;48.996;8.334;2022-08-02T00:49:08;2.42;;;0.60;;
19059;SDS011;9663;48.996;8.334;2022-08-02T00:51:34;2.92;;;0.50;;
19059;SDS011;9663;48.996;8.334;2022-08-02T00:54:01;1.95;;;0.40;;
19059;SDS011;9663;48.996;8.334;2022-08-02T00:56:27;1.27;;;0.50;;
19059;SDS011;9663;48.996;8.334;2022-08-02T00:58:53;1.45;;;0.45;;
19059;SDS011;9663;48.996;8.334;2022-08-02T01:01:18;1.00;;;0.40;;
19059;SDS011;9663;48.996;8.334;2022-08-02T01:03:44;1.65;;;0.50;;
19059;SDS011;9663;48.996;8.334;2022-08-02T01:06:10;0.73;;;0.40;;
19059;SDS011;9663;48.996;8.334;2022-08-02T01:08:38;1.15;;;0.40;;
19059;SDS011;9663;48.996;8.334;2022-08-02T01:11:04;1.40;;;0.50;;
19059;SDS011;9663;48.996;8.334;2022-08-02T01:13:30;1.83;;;0.55;;
19059;SDS011;9663;48.996;8.334;2022-08-02T01:15:59;2.10;;;0.52;;
19059;SDS011;9663;48.996;8.334;2022-08-02T01:18:37;1.08;;;0.40;;
19059;SDS011;9663;48.996;8.334;2022-08-02T01:27:35;2.70;;;0.50;;
19059;SDS011;9663;48.996;8.334;2022-08-02T01:30:30;1.48;;;0.40;;
19059;SDS011;9663;48.996;8.334;2022-08-02T01:33:00;1.50;;;0.50;;
19059;SDS011;9663;48.996;8.334;2022-08-02T01:35:32;1.45;;;0.50;;
19059;SDS011;9663;48.996;8.334;2022-08-02T01:38:13;1.70;;;0.50;;
19059;SDS011;9663;48.996;8.334;2022-08-02T01:40:49;1.63;;;0.50;;
19059;SDS011;9663;48.996;8.334;2022-08-02T01:43:16;1.23;;;0.40;;
19059;SDS011;9663;48.996;8.334;2022-08-02T01:45:46;1.15;;;0.50;;
19059;SDS011;9663;48.996;8.334;2022-08-02T01:48:13;2.45;;;0.55;;
19059;SDS011;9663;48.996;8.334;2022-08-02T01:50:41;1.23;;;0.50;;
19059;SDS011;9663;48.996;8.334;2022-08-02T01:53:08;4.25;;;0.60;;
19059;SDS011;9663;48.996;8.334;2022-08-02T01:55:42;1.98;;;0.70;;
19059;SDS011;9663;48.996;8.334;2022-08-02T01:58:10;3.33;;;0.68;;
19059;SDS011;9663;48.996;8.334;2022-08-02T02:00:42;2.08;;;0.50;;
19059;SDS011;9663;48.996;8.334;2022-08-02T02:03:11;1.33;;;0.55;;
19059;SDS011;9663;48.996;8.334;2022-08-02T02:05:43;0.90;;;0.50;;
19059;SDS011;9663;48.996;8.334;2022-08-02T02:08:12;1.35;;;0.50;;
19059;SDS011;9663;48.996;8.334;2022-08-02T02:10:42;1.55;;;0.57;;
19059;SDS011;9663;48.996;8.334;2022-08-02T02:13:13;1.40;;;0.50;;
19059;SDS011;9663;48.996;8.334;2022-08-02T02:15:44;1.20;;;0.50;;
19059;SDS011;9663;48.996;8.334;2022-08-02T02:18:14;1.02;;;0.50;;
19059;SDS011;9663;48.996;8.334;2022-08-02T02:20:45;1.02;;;0.43;;
19059;SDS011;9663;48.996;8.334;2022-08-02T02:23:12;1.58;;;0.52;;
19059;SDS011;9663;48.996;8.334;2022-08-02T02:25:39;1.77;;;0.50;;
19059;SDS011;9663;48.996;8.334;2022-08-02T02:28:28;1.42;;;0.50;;
19059;SDS011;9663;48.996;8.334;2022-08-02T02:30:59;1.60;;;0.57;;
19059;SDS011;9663;48.996;8.334;2022-08-02T02:33:31;3.40;;;0.63;;
19059;SDS011;9663;48.996;8.334;2022-08-02T02:36:02;1.95;;;0.63;;
19059;SDS011;9663;48.996;8.334;2022-08-02T02:38:31;1.80;;;0.60;;
19059;SDS011;9663;48.996;8.334;2022-08-02T02:40:59;3.70;;;0.70;;
19059;SDS011;9663;48.996;8.334;2022-08-02T02:43:28;1.30;;;0.50;;
19059;SDS011;9663;48.996;8.334;2022-08-02T02:45:57;1.65;;;0.50;;
19059;SDS011;9663;48.996;8.334;2022-08-02T02:48:25;1.90;;;0.70;;
19059;SDS011;9663;48.996;8.334;2022-08-02T02:50:53;2.88;;;0.70;;
19059;SDS011;9663;48.996;8.334;2022-08-02T02:53:21;1.73;;;0.60;;
19059;SDS011;9663;48.996;8.334;2022-08-02T02:55:48;1.80;;;0.70;;
19059;SDS011;9663;48.996;8.334;2022-08-02T02:58:15;1.73;;;0.60;;
19059;SDS011;9663;48.996;8.334;2022-08-02T03:00:41;2.05;;;0.60;;
19059;SDS011;9663;48.996;8.334;2022-08-02T03:03:26;1.92;;;0.60;;
19059;SDS011;9663;48.996;8.334;2022-08-02T03:05:53;1.27;;;0.55;;
19059;SDS011;9663;48.996;8.334;2022-08-02T03:08:19;1.73;;;0.50;;
19059;SDS011;9663;48.996;8.334;2022-08-02T03:10:45;1.48;;;0.60;;
19059;SDS011;9663;48.996;8.334;2022-08-02T03:13:11;1.73;;;0.63;;
19059;SDS011;9663;48.996;8.334;2022-08-02T03:15:38;1.70;;;0.63;;
19059;SDS011;9663;48.996;8.334;2022-08-02T03:18:05;1.85;;;0.60;;
19059;SDS011;9663;48.996;8.334;2022-08-02T03:20:32;3.08;;;0.60;;
19059;SDS011;9663;48.996;8.334;2022-08-02T03:22:59;1.73;;;0.50;;
19059;SDS011;9663;48.996;8.334;2022-08-02T03:25:25;1.42;;;0.65;;
19059;SDS011;9663;48.996;8.334;2022-08-02T03:27:50;2.42;;;0.60;;
19059;SDS011;9663;48.996;8.334;2022-08-02T03:30:16;1.45;;;0.50;;
19059;SDS011;9663;48.996;8.334;2022-08-02T03:32:44;1.10;;;0.50;;
19059;SDS011;9663;48.996;8.334;2022-08-02T03:35:13;1.55;;;0.63;;
19059;SDS011;9663;48.996;8.334;2022-08-02T03:37:41;1.33;;;0.50;;
19059;SDS011;9663;48.996;8.334;2022-08-02T03:40:08;1.65;;;0.60;;
19059;SDS011;9663;48.996;8.334;2022-08-02T03:42:37;3.30;;;0.75;;
19059;SDS011;9663;48.996;8.334;2022-08-02T03:45:05;4.22;;;0.70;;
19059;SDS011;9663;48.996;8.334;2022-08-02T03:47:34;3.22;;;0.70;;
19059;SDS011;9663;48.996;8.334;2022-08-02T03:50:03;2.65;;;0.90;;
19059;SDS011;9663;48.996;8.334;2022-08-02T03:52:37;2.00;;;0.75;;
19059;SDS011;9663;48.996;8.334;2022-08-02T03:55:07;3.33;;;0.70;;
19059;SDS011;9663;48.996;8.334;2022-08-02T03:57:35;2.65;;;1.05;;
19059;SDS011;9663;48.996;8.334;2022-08-02T04:00:04;3.58;;;1.00;;
19059;SDS011;9663;48.996;8.334;2022-08-02T04:02:32;2.00;;;0.77;;
19059;SDS011;9663;48.996;8.334;2022-08-02T04:04:59;2.60;;;0.90;;
19059;SDS011;9663;48.996;8.334;2022-08-02T04:07:25;2.38;;;0.85;;
19059;SDS011;9663;48.996;8.334;2022-08-02T04:09:51;2.50;;;0.85;;
19059;SDS011;9663;48.996;8.334;2022-08-02T04:12:16;2.67;;;0.90;;
19059;SDS011;9663;48.996;8.334;2022-08-02T04:14:42;2.42;;;0.70;;
19059;SDS011;9663;48.996;8.334;2022-08-02T04:17:09;2.20;;;0.90;;
19059;SDS011;9663;48.996;8.334;2022-08-02T04:19:39;2.10;;;0.80;;
19059;SDS011;9663;48.996;8.334;2022-08-02T04:22:46;2.47;;;1.00;;
19059;SDS011;9663;48.996;8.334;2022-08-02T04:25:21;2.17;;;0.80;;
19059;SDS011;9663;48.996;8.334;2022-08-02T04:27:49;2.42;;;1.00;;
19059;SDS011;9663;48.996;8.334;2022-08-02T04:30:16;2.85;;;0.90;;
19059;SDS011;9663;48.996;8.334;2022-08-02T04:32:43;2.63;;;0.80;;
19059;SDS011;9663;48.996;8.334;2022-08-02T04:35:10;3.40;;;0.80;;
19059;SDS011;9663;48.996;8.334;2022-08-02T04:37:36;2.75;;;1.00;;
19059;SDS011;9663;48.996;8.334;2022-08-02T04:40:07;2.92;;;0.70;;
19059;SDS011;9663;48.996;8.334;2022-08-02T04:42:37;2.13;;;0.70;;
19059;SDS011;9663;48.996;8.334;2022-08-02T04:45:07;1.80;;;0.60;;
19059;SDS011;9663;48.996;8.334;2022-08-02T04:47:34;2.05;;;0.80;;
19059;SDS011;9663;48.996;8.334;2022-08-02T04:49:59;1.73;;;0.60;;
19059;SDS011;9663;48.996;8.334;2022-08-02T04:52:25;2.05;;;0.82;;
19059;SDS011;9663;48.996;8.334;2022-08-02T04:54:51;2.25;;;0.88;;
19059;SDS011;9663;48.996;8.334;2022-08-02T04:57:18;2.22;;;0.80;;
19059;SDS011;9663;48.996;8.334;2022-08-02T05:00:04;3.03;;;0.80;;
19059;SDS011;9663;48.996;8.334;2022-08-02T05:02:32;5.75;;;1.27;;
19059;SDS011;9663;48.996;8.334;2022-08-02T05:04:58;1.90;;;0.70;;
19059;SDS011;9663;48.996;8.334;2022-08-02T05:07:24;2.53;;;0.80;;
19059;SDS011;9663;48.996;8.334;2022-08-02T05:09:50;2.92;;;0.85;;
19059;SDS011;9663;48.996;8.334;2022-08-02T05:12:15;2.88;;;1.00;;
19059;SDS011;9663;48.996;8.334;2022-08-02T05:14:41;1.70;;;0.70;;
19059;SDS011;9663;48.996;8.334;2022-08-02T05:17:07;2.70;;;0.77;;
19059;SDS011;9663;48.996;8.334;2022-08-02T05:19:32;2.25;;;0.80;;
19059;SDS011;9663;48.996;8.334;2022-08-02T05:21:58;2.63;;;0.80;;
19059;SDS011;9663;48.996;8.334;2022-08-02T05:24:24;1.70;;;0.68;;
19059;SDS011;9663;48.996;8.334;2022-08-02T05:26:49;2.55;;;0.90;;
19059;SDS011;9663;48.996;8.334;2022-08-02T05:29:15;2.08;;;0.80;;
19059;SDS011;9663;48.996;8.334;2022-08-02T05:31:41;2.90;;;0.90;;
19059;SDS011;9663;48.996;8.334;2022-08-02T05:34:07;2.35;;;0.93;;
19059;SDS011;9663;48.996;8.334;2022-08-02T05:36:32;2.00;;;0.90;;
19059;SDS011;9663;48.996;8.334;2022-08-02T05:38:58;2.58;;;0.70;;
19059;SDS011;9663;48.996;8.334;2022-08-02T05:41:24;2.40;;;0.93;;
19059;SDS011;9663;48.996;8.334;2022-08-02T05:43:50;4.13;;;1.20;;
19059;SDS011;9663;48.996;8.334;2022-08-02T05:46:15;4.00;;;1.40;;
19059;SDS011;9663;48.996;8.334;2022-08-02T05:48:41;4.20;;;1.50;;
19059;SDS011;9663;48.996;8.334;2022-08-02T05:51:13;5.45;;;2.13;;
19059;SDS011;9663;48.996;8.334;2022-08-02T05:53:55;5.10;;;1.88;;
19059;SDS011;9663;48.996;8.334;2022-08-02T06:02:21;4.65;;;1.95;;
19059;SDS011;9663;48.996;8.334;2022-08-02T06:07:36;4.72;;;1.95;;
19059;SDS011;9663;48.996;8.334;2022-08-02T06:10:06;7.50;;;1.77;;
19059;SDS011;9663;48.996;8.334;2022-08-02T06:13:08;4.72;;;1.75;;
19059;SDS011;9663;48.996;8.334;2022-08-02T06:15:42;4.93;;;2.13;;
19059;SDS011;9663;48.996;8.334;2022-08-02T06:18:08;5.13;;;1.70;;
19059;SDS011;9663;48.996;8.334;2022-08-02T06:20:34;3.60;;;1.60;;
19059;SDS011;9663;48.996;8.334;2022-08-02T06:23:05;3.60;;;1.50;;
19059;SDS011;9663;48.996;8.334;2022-08-02T06:25:35;3.72;;;1.50;;
19059;SDS011;9663;48.996;8.334;2022-08-02T06:28:03;3.53;;;1.55;;
19059;SDS011;9663;48.996;8.334;2022-08-02T06:30:31;3.92;;;1.63;;
19059;SDS011;9663;48.996;8.334;2022-08-02T06:32:57;4.00;;;1.60;;
19059;SDS011;9663;48.996;8.334;2022-08-02T06:35:24;3.83;;;1.55;;
19059;SDS011;9663;48.996;8.334;2022-08-02T06:38:21;2.33;;;0.95;;
19059;SDS011;9663;48.996;8.334;2022-08-02T06:46:18;3.65;;;1.50;;
19059;SDS011;9663;48.996;8.334;2022-08-02T06:48:44;3.10;;;1.20;;
19059;SDS011;9663;48.996;8.334;2022-08-02T06:51:11;3.45;;;1.38;;
19059;SDS011;9663;48.996;8.334;2022-08-02T06:53:37;3.70;;;1.50;;
19059;SDS011;9663;48.996;8.334;2022-08-02T06:56:04;3.58;;;1.48;;
19059;SDS011;9663;48.996;8.334;2022-08-02T06:58:29;3.20;;;1.38;;
19059;SDS011;9663;48.996;8.334;2022-08-02T07:00:55;4.20;;;1.60;;
19059;SDS011;9663;48.996;8.334;2022-08-02T07:03:21;4.40;;;1.70;;
19059;SDS011;9663;48.996;8.334;2022-08-02T07:05:49;4.85;;;1.80;;
19059;SDS011;9663;48.996;8.334;2022-08-02T07:08:16;3.40;;;1.30;;
19059;SDS011;9663;48.996;8.334;2022-08-02T07:10:43;3.80;;;1.30;;
19059;SDS011;9663;48.996;8.334;2022-08-02T07:13:10;5.57;;;1.40;;
19059;SDS011;9663;48.996;8.334;2022-08-02T07:15:36;3.10;;;1.25;;
19059;SDS011;9663;48.996;8.334;2022-08-02T07:18:03;4.40;;;1.20;;
19059;SDS011;9663;48.996;8.334;2022-08-02T07:20:30;3.30;;;1.50;;
19059;SDS011;9663;48.996;8.334;2022-08-02T07:22:56;3.92;;;1.25;;
19059;SDS011;9663;48.996;8.334;2022-08-02T07:25:22;4.50;;;1.65;;
19059;SDS011;9663;48.996;8.334;2022-08-02T07:27:48;3.45;;;1.40;;
19059;SDS011;9663;48.996;8.334;2022-08-02T07:30:14;4.50;;;1.50;;
19059;SDS011;9663;48.996;8.334;2022-08-02T07:32:40;3.97;;;1.58;;
19059;SDS011;9663;48.996;8.334;2022-08-02T07:35:05;3.63;;;1.50;;
19059;SDS011;9663;48.996;8.334;2022-08-02T07:37:33;3.35;;;1.42;;
19059;SDS011;9663;48.996;8.334;2022-08-02T07:40:02;4.38;;;1.65;;
19059;SDS011;9663;48.996;8.334;2022-08-02T07:42:30;3.33;;;1.42;;
19059;SDS011;9663;48.996;8.334;2022-08-02T07:44:56;3.20;;;1.40;;
19059;SDS011;9663;48.996;8.334;2022-08-02T07:47:22;4.63;;;1.45;;
19059;SDS011;9663;48.996;8.334;2022-08-02T07:49:48;3.65;;;1.40;;
19059;SDS011;9663;48.996;8.334;2022-08-02T07:52:14;3.55;;;1.40;;
19059;SDS011;9663;48.996;8.334;2022-08-02T07:54:39;2.60;;;1.20;;
19059;SDS011;9663;48.996;8.334;2022-08-02T07:57:05;5.15;;;1.67;;
19059;SDS011;9663;48.996;8.334;2022-08-02T07:59:31;3.90;;;1.45;;
19059;SDS011;9663;48.996;8.334;2022-08-02T08:01:57;4.63;;;1.73;;
19059;SDS011;9663;48.996;8.334;2022-08-02T08:04:23;2.92;;;1.20;;
19059;SDS011;9663;48.996;8.334;2022-08-02T08:06:48;3.05;;;1.20;;
19059;SDS011;9663;48.996;8.334;2022-08-02T08:09:16;4.00;;;1.55;;
19059;SDS011;9663;48.996;8.334;2022-08-02T08:11:43;3.53;;;1.45;;
19059;SDS011;9663;48.996;8.334;2022-08-02T08:14:09;2.65;;;1.00;;
19059;SDS011;9663;48.996;8.334;2022-08-02T08:16:34;2.55;;;1.02;;
19059;SDS011;9663;48.996;8.334;2022-08-02T08:19:00;3.28;;;1.15;;
19059;SDS011;9663;48.996;8.334;2022-08-02T08:21:27;2.60;;;1.10;;
19059;SDS011;9663;48.996;8.334;2022-08-02T08:23:58;4.20;;;1.30;;
19059;SDS011;9663;48.996;8.334;2022-08-02T08:26:24;2.92;;;1.23;;
19059;SDS011;9663;48.996;8.334;2022-08-02T08:28:50;2.88;;;1.20;;
19059;SDS011;9663;48.996;8.334;2022-08-02T08:31:16;3.92;;;1.35;;
19059;SDS011;9663;48.996;8.334;2022-08-02T08:33:44;2.58;;;1.20;;
19059;SDS011;9663;48.996;8.334;2022-08-02T08:36:10;2.42;;;1.10;;
19059;SDS011;9663;48.996;8.334;2022-08-02T08:38:35;5.32;;;1.27;;
19059;SDS011;9663;48.996;8.334;2022-08-02T08:41:01;3.20;;;1.25;;
19059;SDS011;9663;48.996;8.334;2022-08-02T08:43:27;2.70;;;1.20;;
19059;SDS011;9663;48.996;8.334;2022-08-02T08:45:52;3.05;;;1.20;;
19059;SDS011;9663;48.996;8.334;2022-08-02T08:48:18;3.15;;;1.45;;
19059;SDS011;9663;48.996;8.334;2022-08-02T08:51:06;4.95;;;1.45;;
19059;SDS011;9663;48.996;8.334;2022-08-02T08:53:38;2.53;;;1.10;;
19059;SDS011;9663;48.996;8.334;2022-08-02T08:56:07;2.65;;;1.15;;
19059;SDS011;9663;48.996;8.334;2022-08-02T08:58:37;2.50;;;1.05;;
19059;SDS011;9663;48.996;8.334;2022-08-02T09:01:03;2.95;;;1.30;;
19059;SDS011;9663;48.996;8.334;2022-08-02T09:03:29;2.63;;;1.10;;
19059;SDS011;9663;48.996;8.334;2022-08-02T09:05:56;4.70;;;1.23;;
19059;SDS011;9663;48.996;8.334;2022-08-02T09:08:23;2.63;;;1.10;;
19059;SDS011;9663;48.996;8.334;2022-08-02T09:10:49;3.22;;;1.33;;
19059;SDS011;9663;48.996;8.334;2022-08-02T09:13:16;2.08;;;0.93;;
19059;SDS011;9663;48.996;8.334;2022-08-02T09:15:51;2.92;;;1.17;;
19059;SDS011;9663;48.996;8.334;2022-08-02T09:18:32;3.55;;;1.30;;
19059;SDS011;9663;48.996;8.334;2022-08-02T09:21:04;3.53;;;1.40;;
19059;SDS011;9663;48.996;8.334;2022-08-02T09:23:39;2.97;;;1.30;;
19059;SDS011;9663;48.996;8.334;2022-08-02T09:26:12;3.05;;;1.10;;
19059;SDS011;9663;48.996;8.334;2022-08-02T09:28:41;2.90;;;1.20;;
19059;SDS011;9663;48.996;8.334;2022-08-02T09:31:12;2.67;;;1.10;;
19059;SDS011;9663;48.996;8.334;2022-08-02T09:33:50;2.35;;;1.00;;
19059;SDS011;9663;48.996;8.334;2022-08-02T09:36:19;2.65;;;1.17;;
19059;SDS011;9663;48.996;8.334;2022-08-02T09:38:53;3.00;;;1.25;;
19059;SDS011;9663;48.996;8.334;2022-08-02T09:41:28;2.50;;;1.08;;
19059;SDS011;9663;48.996;8.334;2022-08-02T09:44:01;3.05;;;1.33;;
19059;SDS011;9663;48.996;8.334;2022-08-02T09:46:31;2.55;;;1.17;;
19059;SDS011;9663;48.996;8.334;2022-08-02T09:49:04;2.45;;;1.00;;
19059;SDS011;9663;48.996;8.334;2022-08-02T09:54:10;3.65;;;1.30;;
19059;SDS011;9663;48.996;8.334;2022-08-02T09:59:16;2.17;;;1.00;;
19059;SDS011;9663;48.996;8.334;2022-08-02T10:01:45;3.47;;;1.48;;
19059;SDS011;9663;48.996;8.334;2022-08-02T10:04:13;2.90;;;1.20;;
19059;SDS011;9663;48.996;8.334;2022-08-02T10:06:40;3.00;;;1.25;;
19059;SDS011;9663;48.996;8.334;2022-08-02T10:09:08;2.33;;;1.10;;
19059;SDS011;9663;48.996;8.334;2022-08-02T10:11:37;2.92;;;1.15;;
19059;SDS011;9663;48.996;8.334;2022-08-02T10:17:01;2.90;;;1.20;;
19059;SDS011;9663;48.996;8.334;2022-08-02T10:19:31;3.00;;;1.33;;
19059;SDS011;9663;48.996;8.334;2022-08-02T10:22:05;2.78;;;1.20;;
19059;SDS011;9663;48.996;8.334;2022-08-02T10:24:36;3.30;;;1.40;;
19059;SDS011;9663;48.996;8.334;2022-08-02T10:27:05;3.00;;;1.23;;
19059;SDS011;9663;48.996;8.334;2022-08-02T10:29:38;3.60;;;1.33;;
19059;SDS011;9663;48.996;8.334;2022-08-02T10:32:15;3.72;;;1.20;;
19059;SDS011;9663;48.996;8.334;2022-08-02T10:35:01;3.40;;;1.30;;
19059;SDS011;9663;48.996;8.334;2022-08-02T10:37:33;3.20;;;1.50;;
19059;SDS011;9663;48.996;8.334;2022-08-02T10:40:03;2.10;;;0.98;;
19059;SDS011;9663;48.996;8.334;2022-08-02T10:42:44;3.80;;;1.20;;
19059;SDS011;9663;48.996;8.334;2022-08-02T10:45:15;4.28;;;1.25;;
19059;SDS011;9663;48.996;8.334;2022-08-02T10:47:57;3.00;;;1.42;;
19059;SDS011;9663;48.996;8.334;2022-08-02T10:56:03;3.40;;;1.50;;
19059;SDS011;9663;48.996;8.334;2022-08-02T10:58:31;3.03;;;1.33;;
19059;SDS011;9663;48.996;8.334;2022-08-02T11:01:02;3.03;;;1.27;;
19059;SDS011;9663;48.996;8.334;2022-08-02T11:03:48;3.42;;;1.58;;
19059;SDS011;9663;48.996;8.334;2022-08-02T11:06:14;3.08;;;1.33;;
19059;SDS011;9663;48.996;8.334;2022-08-02T11:08:39;3.13;;;1.45;;
19059;SDS011;9663;48.996;8.334;2022-08-02T11:19:20;3.67;;;1.48;;
19059;SDS011;9663;48.996;8.334;2022-08-02T11:22:03;2.75;;;1.27;;
19059;SDS011;9663;48.996;8.334;2022-08-02T11:24:36;2.58;;;1.25;;
19059;SDS011;9663;48.996;8.334;2022-08-02T11:27:07;2.80;;;1.25;;
19059;SDS011;9663;48.996;8.334;2022-08-02T11:29:41;3.17;;;1.45;;
19059;SDS011;9663;48.996;8.334;2022-08-02T11:32:23;3.08;;;1.38;;
19059;SDS011;9663;48.996;8.334;2022-08-02T11:34:50;3.00;;;1.38;;
19059;SDS011;9663;48.996;8.334;2022-08-02T11:37:31;3.63;;;1.23;;
19059;SDS011;9663;48.996;8.334;2022-08-02T11:40:00;2.90;;;1.23;;
19059;SDS011;9663;48.996;8.334;2022-08-02T11:42:35;2.67;;;1.25;;
19059;SDS011;9663;48.996;8.334;2022-08-02T11:45:03;3.47;;;1.50;;
19059;SDS011;9663;48.996;8.334;2022-08-02T11:47:33;2.72;;;1.30;;
19059;SDS011;9663;48.996;8.334;2022-08-02T11:50:14;4.43;;;1.30;;
19059;SDS011;9663;48.996;8.334;2022-08-02T11:52:42;2.97;;;1.38;;
19059;SDS011;9663;48.996;8.334;2022-08-02T11:55:09;2.83;;;1.20;;
19059;SDS011;9663;48.996;8.334;2022-08-02T11:57:35;2.63;;;1.20;;
19059;SDS011;9663;48.996;8.334;2022-08-02T12:00:03;2.90;;;1.30;;
19059;SDS011;9663;48.996;8.334;2022-08-02T12:02:44;2.35;;;1.20;;
19059;SDS011;9663;48.996;8.334;2022-08-02T12:05:16;3.03;;;1.58;;
19059;SDS011;9663;48.996;8.334;2022-08-02T12:07:45;2.95;;;1.40;;
19059;SDS011;9663;48.996;8.334;2022-08-02T12:10:15;4.53;;;1.42;;
19059;SDS011;9663;48.996;8.334;2022-08-02T12:18:19;3.05;;;1.42;;
19059;SDS011;9663;48.996;8.334;2022-08-02T12:21:20;2.65;;;1.17;;
19059;SDS011;9663;48.996;8.334;2022-08-02T12:23:48;2.95;;;1.38;;
19059;SDS011;9663;48.996;8.334;2022-08-02T12:26:14;3.53;;;1.40;;
19059;SDS011;9663;48.996;8.334;2022-08-02T12:28:40;2.75;;;1.20;;
19059;SDS011;9663;48.996;8.334;2022-08-02T12:31:07;3.03;;;1.17;;
19059;SDS011;9663;48.996;8.334;2022-08-02T12:33:46;2.92;;;1.35;;
19059;SDS011;9663;48.996;8.334;2022-08-02T12:36:21;2.85;;;1.30;;
19059;SDS011;9663;48.996;8.334;2022-08-02T12:38:52;3.13;;;1.40;;
19059;SDS011;9663;48.996;8.334;2022-08-02T12:41:24;3.22;;;1.20;;
19059;SDS011;9663;48.996;8.334;2022-08-02T12:43:52;3.60;;;1.30;;
19059;SDS011;9663;48.996;8.334;2022-08-02T12:46:19;2.75;;;1.30;;
19059;SDS011;9663;48.996;8.334;2022-08-02T12:48:48;2.78;;;1.20;;
19059;SDS011;9663;48.996;8.334;2022-08-02T12:54:18;2.55;;;1.20;;
19059;SDS011;9663;48.996;8.334;2022-08-02T12:56:48;2.90;;;1.38;;
19059;SDS011;9663;48.996;8.334;2022-08-02T12:59:15;3.10;;;1.40;;
19059;SDS011;9663;48.996;8.334;2022-08-02T13:02:30;2.72;;;1.20;;
19059;SDS011;9663;48.996;8.334;2022-08-02T13:04:49;2.30;;;1.05;;
19059;SDS011;9663;48.996;8.334;2022-08-02T13:07:15;3.25;;;1.25;;
19059;SDS011;9663;48.996;8.334;2022-08-02T13:09:41;2.47;;;1.10;;
19059;SDS011;9663;48.996;8.334;2022-08-02T13:12:11;2.45;;;1.20;;
19059;SDS011;9663;48.996;8.334;2022-08-02T13:14:37;3.53;;;1.25;;
19059;SDS011;9663;48.996;8.334;2022-08-02T13:17:02;2.80;;;1.10;;
19059;SDS011;9663;48.996;8.334;2022-08-02T13:19:28;2.38;;;1.13;;
19059;SDS011;9663;48.996;8.334;2022-08-02T13:21:54;3.17;;;1.15;;
19059;SDS011;9663;48.996;8.334;2022-08-02T13:24:20;2.08;;;1.00;;
19059;SDS011;9663;48.996;8.334;2022-08-02T13:26:46;2.25;;;1.05;;
19059;SDS011;9663;48.996;8.334;2022-08-02T13:29:11;2.65;;;1.20;;
19059;SDS011;9663;48.996;8.334;2022-08-02T13:31:37;2.30;;;1.08;;
19059;SDS011;9663;48.996;8.334;2022-08-02T13:34:04;2.60;;;1.17;;
19059;SDS011;9663;48.996;8.334;2022-08-02T13:36:32;2.25;;;1.02;;
19059;SDS011;9663;48.996;8.334;2022-08-02T13:39:03;2.75;;;1.30;;
19059;SDS011;9663;48.996;8.334;2022-08-02T13:41:30;2.88;;;1.30;;
19059;SDS011;9663;48.996;8.334;2022-08-02T13:43:56;2.30;;;0.98;;
19059;SDS011;9663;48.996;8.334;2022-08-02T13:46:22;2.05;;;0.90;;
19059;SDS011;9663;48.996;8.334;2022-08-02T13:48:47;2.15;;;1.00;;
19059;SDS011;9663;48.996;8.334;2022-08-02T13:51:13;2.42;;;1.15;;
19059;SDS011;9663;48.996;8.334;2022-08-02T13:53:39;2.15;;;0.95;;
19059;SDS011;9663;48.996;8.334;2022-08-02T13:56:05;2.65;;;1.15;;
19059;SDS011;9663;48.996;8.334;2022-08-02T13:58:32;2.13;;;0.90;;
19059;SDS011;9663;48.996;8.334;2022-08-02T14:00:58;2.47;;;1.17;;
19059;SDS011;9663;48.996;8.334;2022-08-02T14:03:24;4.03;;;1.10;;
19059;SDS011;9663;48.996;8.334;2022-08-02T14:05:50;2.03;;;0.95;;
19059;SDS011;9663;48.996;8.334;2022-08-02T14:08:16;3.03;;;1.15;;
19059;SDS011;9663;48.996;8.334;2022-08-02T14:10:44;2.08;;;0.88;;
19059;SDS011;9663;48.996;8.334;2022-08-02T14:13:11;1.80;;;0.90;;
19059;SDS011;9663;48.996;8.334;2022-08-02T14:15:37;2.40;;;1.00;;
19059;SDS011;9663;48.996;8.334;2022-08-02T14:18:04;3.00;;;1.27;;
19059;SDS011;9663;48.996;8.334;2022-08-02T14:20:29;2.22;;;1.08;;
19059;SDS011;9663;48.996;8.334;2022-08-02T14:22:55;2.42;;;1.05;;
19059;SDS011;9663;48.996;8.334;2022-08-02T14:25:21;3.05;;;1.10;;
19059;SDS011;9663;48.996;8.334;2022-08-02T14:27:46;2.55;;;1.23;;
19059;SDS011;9663;48.996;8.334;2022-08-02T14:30:12;2.92;;;1.30;;
19059;SDS011;9663;48.996;8.334;2022-08-02T14:32:38;2.60;;;1.13;;
19059;SDS011;9663;48.996;8.334;2022-08-02T14:35:04;2.25;;;1.10;;
19059;SDS011;9663;48.996;8.334;2022-08-02T14:37:30;2.38;;;1.00;;
19059;SDS011;9663;48.996;8.334;2022-08-02T14:39:56;2.17;;;1.02;;
19059;SDS011;9663;48.996;8.334;2022-08-02T14:42:22;2.45;;;1.10;;
19059;SDS011;9663;48.996;8.334;2022-08-02T14:44:48;2.08;;;1.10;;
19059;SDS011;9663;48.996;8.334;2022-08-02T14:47:13;2.70;;;1.10;;
19059;SDS011;9663;48.996;8.334;2022-08-02T14:49:39;2.13;;;1.17;;
19059;SDS011;9663;48.996;8.334;2022-08-02T14:52:05;2.55;;;1.10;;
19059;SDS011;9663;48.996;8.334;2022-08-02T14:54:30;2.40;;;1.10;;
19059;SDS011;9663;48.996;8.334;2022-08-02T14:56:58;2.53;;;1.00;;
19059;SDS011;9663;48.996;8.334;2022-08-02T14:59:26;2.70;;;1.02;;
19059;SDS011;9663;48.996;8.334;2022-08-02T15:01:53;2.22;;;1.00;;
19059;SDS011;9663;48.996;8.334;2022-08-02T15:04:19;2.67;;;1.00;;
19059;SDS011;9663;48.996;8.334;2022-08-02T15:06:44;1.70;;;0.90;;
19059;SDS011;9663;48.996;8.334;2022-08-02T15:09:10;2.45;;;1.17;;
19059;SDS011;9663;48.996;8.334;2022-08-02T15:11:37;2.03;;;1.00;;
19059;SDS011;9663;48.996;8.334;2022-08-02T15:14:03;2.85;;;1.15;;
19059;SDS011;9663;48.996;8.334;2022-08-02T15:16:29;1.90;;;1.00;;
19059;SDS011;9663;48.996;8.334;2022-08-02T15:18:59;2.35;;;1.10;;
19059;SDS011;9663;48.996;8.334;2022-08-02T15:21:26;2.38;;;1.15;;
19059;SDS011;9663;48.996;8.334;2022-08-02T15:23:52;2.63;;;1.27;;
19059;SDS011;9663;48.996;8.334;2022-08-02T15:26:17;2.20;;;1.10;;
19059;SDS011;9663;48.996;8.334;2022-08-02T15:28:44;1.98;;;1.00;;
19059;SDS011;9663;48.996;8.334;2022-08-02T15:31:11;2.30;;;1.20;;
19059;SDS011;9663;48.996;8.334;2022-08-02T15:33:38;2.10;;;1.05;;
19059;SDS011;9663;48.996;8.334;2022-08-02T15:36:05;2.30;;;1.17;;
19059;SDS011;9663;48.996;8.334;2022-08-02T15:38:31;2.47;;;1.23;;
19059;SDS011;9663;48.996;8.334;2022-08-02T15:40:58;2.67;;;1.30;;
19059;SDS011;9663;48.996;8.334;2022-08-02T15:43:24;2.10;;;1.10;;
19059;SDS011;9663;48.996;8.334;2022-08-02T15:45:50;2.45;;;1.13;;
19059;SDS011;9663;48.996;8.334;2022-08-02T15:48:15;2.10;;;1.15;;
19059;SDS011;9663;48.996;8.334;2022-08-02T15:50:41;1.95;;;1.05;;
19059;SDS011;9663;48.996;8.334;2022-08-02T15:53:08;2.13;;;1.20;;
19059;SDS011;9663;48.996;8.334;2022-08-02T15:55:34;3.15;;;1.45;;
19059;SDS011;9663;48.996;8.334;2022-08-02T15:58:00;2.45;;;1.20;;
19059;SDS011;9663;48.996;8.334;2022-08-02T16:00:26;2.35;;;1.17;;